createdAt,value
2019-03-11T00:02:39.236Z,0.60
2019-03-11T00:07:43.395Z,0.50
2019-03-11T00:12:48.341Z,0.63
2019-03-11T00:17:52.522Z,0.73
2019-03-11T00:22:56.713Z,0.50
2019-03-11T00:28:00.885Z,0.50
2019-03-11T00:33:05.926Z,0.50
2019-03-11T00:38:11.343Z,0.50
2019-03-11T00:43:16.214Z,0.60
2019-03-11T00:48:20.384Z,1.07
2019-03-11T00:53:25.429Z,0.53
2019-03-11T00:58:29.645Z,0.50
2019-03-11T01:03:34.377Z,0.50
2019-03-11T01:08:38.570Z,0.80
2019-03-11T01:13:42.815Z,0.60
2019-03-11T01:18:46.987Z,0.80
2019-03-11T01:23:53.296Z,0.80
2019-03-11T01:28:57.494Z,0.67
2019-03-11T01:34:03.240Z,0.80
2019-03-11T01:39:07.410Z,0.70
2019-03-11T01:44:12.739Z,1.30
2019-03-11T01:49:16.997Z,0.90
2019-03-11T01:54:22.418Z,0.63
2019-03-11T01:59:26.600Z,1.13
2019-03-11T02:04:32.317Z,1.17
2019-03-11T02:09:36.494Z,1.00
2019-03-11T02:14:43.128Z,1.10
2019-03-11T02:19:47.306Z,0.60
2019-03-11T02:24:52.947Z,1.00
2019-03-11T02:29:57.125Z,0.70
2019-03-11T02:35:02.463Z,0.87
2019-03-11T02:40:07.223Z,0.93
2019-03-11T02:45:12.184Z,1.17
2019-03-11T02:50:16.343Z,1.00
2019-03-11T02:55:21.349Z,1.33
2019-03-11T03:00:25.524Z,1.00
2019-03-11T03:05:37.598Z,0.90
2019-03-11T03:10:41.760Z,1.10
2019-03-11T03:15:46.694Z,0.90
2019-03-11T03:20:50.857Z,0.90
2019-03-11T03:25:55.861Z,0.97
2019-03-11T03:31:00.027Z,1.03
2019-03-11T03:36:04.944Z,1.00
2019-03-11T03:41:09.475Z,1.10
2019-03-11T03:46:19.340Z,0.97
2019-03-11T03:51:20.498Z,1.30
2019-03-11T03:56:25.364Z,1.07
2019-03-11T04:01:29.516Z,1.10
2019-03-11T04:06:33.722Z,1.00
2019-03-11T04:11:37.882Z,1.00
2019-03-11T04:16:42.694Z,1.00
2019-03-11T04:21:46.871Z,1.07
2019-03-11T04:26:53.319Z,1.20
2019-03-11T04:31:57.518Z,1.17
2019-03-11T04:37:02.602Z,1.20
2019-03-11T04:42:06.779Z,1.20
2019-03-11T04:47:11.885Z,1.47
2019-03-11T04:52:16.056Z,1.20
2019-03-11T04:57:20.570Z,1.40
2019-03-11T05:02:24.741Z,1.13
2019-03-11T05:07:31.729Z,1.20
2019-03-11T05:12:35.904Z,1.17
2019-03-11T05:17:40.996Z,1.43
2019-03-11T05:22:46.802Z,1.83
2019-03-11T05:27:52.017Z,1.50
2019-03-11T05:32:56.203Z,2.10
2019-03-11T05:38:00.374Z,1.30
2019-03-11T05:43:04.559Z,2.23
2019-03-11T05:48:09.328Z,1.73
2019-03-11T05:53:13.536Z,1.70
2019-03-11T05:58:18.758Z,2.17
2019-03-11T06:03:22.935Z,1.87
2019-03-11T06:08:28.428Z,1.40
2019-03-11T06:13:36.254Z,2.80
2019-03-11T06:18:56.455Z,1.30
2019-03-11T06:24:00.639Z,1.70
2019-03-11T06:29:04.831Z,1.40
2019-03-11T06:34:09.020Z,0.83
2019-03-11T06:39:13.181Z,0.80
2019-03-11T06:44:17.375Z,0.87
2019-03-11T06:49:22.082Z,0.77
2019-03-11T06:54:26.283Z,0.97
2019-03-11T06:59:32.546Z,0.73
2019-03-11T07:04:36.728Z,0.50
2019-03-11T07:09:41.678Z,0.60
2019-03-11T07:14:45.842Z,0.70
2019-03-11T07:19:50.780Z,0.67
2019-03-11T07:24:54.973Z,0.60
2019-03-11T07:29:59.939Z,0.60
2019-03-11T07:35:08.502Z,0.60
2019-03-11T07:40:10.369Z,0.50
2019-03-11T07:45:14.636Z,0.60
2019-03-11T07:50:19.280Z,0.70
2019-03-11T07:55:23.483Z,0.60
2019-03-11T08:00:28.510Z,0.60
2019-03-11T08:05:32.680Z,0.70
2019-03-11T08:10:37.577Z,0.60
2019-03-11T08:15:41.800Z,0.70
2019-03-11T08:20:46.791Z,0.53
2019-03-11T08:25:51.006Z,0.70
2019-03-11T08:30:55.941Z,1.00
2019-03-11T08:36:00.119Z,0.50
2019-03-11T08:41:04.326Z,0.60
2019-03-11T08:46:08.526Z,0.80
2019-03-11T08:51:13.901Z,0.90
2019-03-11T08:56:18.097Z,0.53
2019-03-11T09:01:23.679Z,0.73
2019-03-11T09:06:27.858Z,0.80
2019-03-11T09:11:33.400Z,0.73
2019-03-11T09:16:37.596Z,0.70
2019-03-11T09:21:43.193Z,0.90
2019-03-11T09:26:47.691Z,0.70
2019-03-11T09:31:53.097Z,0.80
2019-03-11T09:36:57.262Z,0.70
2019-03-11T09:42:01.716Z,0.70
2019-03-11T09:47:06.154Z,0.63
2019-03-11T09:52:11.967Z,0.70
2019-03-11T09:57:16.131Z,0.90
2019-03-11T10:02:22.111Z,0.70
2019-03-11T10:07:26.359Z,0.80
2019-03-11T10:12:31.212Z,1.10
2019-03-11T10:17:35.362Z,0.75
2019-03-11T10:22:41.151Z,0.80
2019-03-11T10:27:45.636Z,0.87
2019-03-11T10:32:52.935Z,0.90
2019-03-11T10:37:58.536Z,1.03
2019-03-11T10:43:03.045Z,0.80
2019-03-11T10:48:07.482Z,0.97
2019-03-11T10:53:13.323Z,1.00
2019-03-11T10:58:17.474Z,0.88
2019-03-11T11:03:23.003Z,0.80
2019-03-11T11:08:27.213Z,0.85
2019-03-11T11:13:32.101Z,1.10
2019-03-11T11:18:36.263Z,0.80
2019-03-11T11:23:40.423Z,0.88
2019-03-11T11:28:44.605Z,0.80
2019-03-11T11:33:50.157Z,0.90
2019-03-11T11:38:54.322Z,0.70
2019-03-11T11:43:58.493Z,1.00
2019-03-11T11:49:02.935Z,0.80
2019-03-11T11:54:08.410Z,0.70
2019-03-11T11:59:12.594Z,0.75
2019-03-11T12:04:18.027Z,0.85
2019-03-11T12:09:22.257Z,0.90
2019-03-11T12:14:28.025Z,1.00
2019-03-11T12:19:33.995Z,0.90
2019-03-11T12:24:39.556Z,0.75
2019-03-11T12:29:44.011Z,0.90
2019-03-11T12:34:49.658Z,0.82
2019-03-11T12:39:54.092Z,0.73
2019-03-11T12:44:59.878Z,0.78
2019-03-11T12:50:05.405Z,0.80
2019-03-11T12:55:10.710Z,0.70
2019-03-11T13:00:15.988Z,0.77
2019-03-11T13:05:20.509Z,0.70
2019-03-11T13:10:24.974Z,0.70
2019-03-11T13:15:29.152Z,0.78
2019-03-11T13:20:33.330Z,0.80
2019-03-11T13:25:37.500Z,0.80
2019-03-11T13:30:41.676Z,0.80
2019-03-11T13:35:46.203Z,0.80
2019-03-11T13:40:50.653Z,0.90
2019-03-11T13:45:54.851Z,0.90
2019-03-11T13:50:59.290Z,0.57
2019-03-11T13:56:05.010Z,0.70
2019-03-11T14:01:09.466Z,0.63
2019-03-11T14:06:13.932Z,0.80
2019-03-11T14:11:18.454Z,0.80
2019-03-11T14:16:22.891Z,0.73
2019-03-11T14:21:27.070Z,0.85
2019-03-11T14:26:31.291Z,0.90
2019-03-11T14:31:35.775Z,0.90
2019-03-11T14:36:40.235Z,0.80
2019-03-11T14:41:44.466Z,0.90
2019-03-11T14:46:48.652Z,0.72
2019-03-11T14:51:53.102Z,0.90
2019-03-11T14:56:57.677Z,0.80
2019-03-11T15:02:03.121Z,0.80
2019-03-11T15:07:07.329Z,0.80
2019-03-11T15:12:11.591Z,0.85
2019-03-11T15:17:16.088Z,0.90
2019-03-11T15:22:22.294Z,0.72
2019-03-11T15:27:26.165Z,1.07
2019-03-11T15:32:30.460Z,0.90
2019-03-11T15:37:34.653Z,0.80
2019-03-11T15:42:38.823Z,0.72
2019-03-11T15:47:43.019Z,0.82
2019-03-11T15:52:47.510Z,1.10
2019-03-11T15:57:51.810Z,1.00
2019-03-11T16:02:57.299Z,1.20
2019-03-11T16:08:01.549Z,1.10
2019-03-11T16:13:05.828Z,1.10
2019-03-11T16:18:10.032Z,0.90
2019-03-11T16:23:15.561Z,1.22
2019-03-11T16:28:21.095Z,1.10
2019-03-11T16:33:26.675Z,1.00
2019-03-11T16:38:31.158Z,1.07
2019-03-11T16:43:35.465Z,0.98
2019-03-11T16:48:39.934Z,1.27
2019-03-11T16:53:44.204Z,0.90
2019-03-11T16:58:48.745Z,1.27
2019-03-11T17:03:54.426Z,0.80
2019-03-11T17:08:58.982Z,1.00
2019-03-11T17:14:03.223Z,0.90
2019-03-11T17:19:09.340Z,0.90
2019-03-11T17:24:14.545Z,1.10
2019-03-11T17:29:18.822Z,0.98
2019-03-11T17:34:24.170Z,1.30
2019-03-11T17:39:28.459Z,1.10
2019-03-11T17:44:32.941Z,1.20
2019-03-11T17:49:37.218Z,1.20
2019-03-11T17:54:43.042Z,1.13
2019-03-11T17:59:47.307Z,1.10
2019-03-11T18:04:52.910Z,1.00
2019-03-11T18:09:57.109Z,0.98
2019-03-11T18:15:03.326Z,1.23
2019-03-11T18:20:09.119Z,1.20
2019-03-11T18:25:15.418Z,1.30
2019-03-11T18:30:20.737Z,1.00
2019-03-11T18:35:26.423Z,1.10
2019-03-11T18:40:30.622Z,1.20
2019-03-11T18:45:34.809Z,1.30
2019-03-11T18:50:39.012Z,1.20
2019-03-11T18:55:44.586Z,1.30
2019-03-11T19:00:48.773Z,1.17
2019-03-11T19:05:54.290Z,1.10
2019-03-11T19:10:58.536Z,1.20
2019-03-11T19:16:04.437Z,1.03
2019-03-11T19:21:09.157Z,1.30
2019-03-11T19:26:14.698Z,1.00
2019-03-11T19:31:18.963Z,1.30
2019-03-11T19:36:24.390Z,1.70
2019-03-11T19:41:28.875Z,1.67
2019-03-11T19:46:33.402Z,1.00
2019-03-11T19:51:37.973Z,1.40
2019-03-11T19:56:43.653Z,1.50
2019-03-11T20:01:47.906Z,1.37
2019-03-11T20:06:53.294Z,1.67
2019-03-11T20:11:57.902Z,1.17
2019-03-11T20:17:03.503Z,1.70
2019-03-11T20:22:07.817Z,1.30
2019-03-11T20:27:15.104Z,1.53
2019-03-11T20:32:19.351Z,1.67
2019-03-11T20:37:24.967Z,1.60
2019-03-11T20:42:29.139Z,1.50
2019-03-11T20:47:33.444Z,1.60
2019-03-11T20:52:37.834Z,1.45
2019-03-11T20:57:43.194Z,1.60
2019-03-11T21:02:48.875Z,1.50
2019-03-11T21:07:53.973Z,1.87
2019-03-11T21:12:58.192Z,1.90
2019-03-11T21:18:03.723Z,1.53
2019-03-11T21:23:07.956Z,1.87
2019-03-11T21:28:13.551Z,1.40
2019-03-11T21:33:17.758Z,1.80
2019-03-11T21:38:26.986Z,1.63
2019-03-11T21:43:31.375Z,1.57
2019-03-11T21:48:36.998Z,1.50
2019-03-11T21:53:41.259Z,1.50
2019-03-11T21:58:45.637Z,1.20
2019-03-11T22:03:50.731Z,0.60
2019-03-11T22:08:54.989Z,1.20
2019-03-11T22:13:59.183Z,1.00
2019-03-11T22:19:03.353Z,0.90
2019-03-11T22:24:08.354Z,1.00
2019-03-11T22:29:12.527Z,0.93
2019-03-11T22:34:16.740Z,0.77
2019-03-11T22:39:20.902Z,0.90
2019-03-11T22:44:25.461Z,0.93
2019-03-11T22:49:31.265Z,0.90
2019-03-11T22:54:35.813Z,1.10
2019-03-11T22:59:40.252Z,0.80
2019-03-11T23:04:44.704Z,0.90
2019-03-11T23:09:48.899Z,1.00
2019-03-11T23:14:53.210Z,1.00
2019-03-11T23:19:57.391Z,0.80
2019-03-11T23:25:02.503Z,1.00
2019-03-11T23:30:07.437Z,1.20
2019-03-11T23:35:12.559Z,1.00
2019-03-11T23:40:16.728Z,1.00
2019-03-11T23:45:21.299Z,1.00
2019-03-11T23:50:26.319Z,1.00
2019-03-11T23:55:31.128Z,1.20
